Amba, Kentucky
Current Conditions -  °F | °C
As of 9:55 AM on Sunday 23 Nov 2014 (Local Time) from KPBX Reporting Station
Clear Clear  
Wind Chill: 14°   Ceiling: Unl
Heat Index: 14°   Visibility: 10mi
Dew Point:   Wind: 10mph
Humidity: 55%   Direction: 140°SE
Pressure: 30.01"   Gusts: NA
Location:  37.4843°N, 82.6492°W
Report Text: KPBX 231455Z AUTO 14009KT 10SM CLR 14/05 A3001 RMK AO2 T01350046
Loading
Personal Weather Stations






























Interactive Weather Map New forecast layout! Learn more

10-Day Weather Forecast

Advertisements
Track Severe Weather on mobile